Time;durP1;ratioP1;P1;durP2;ratioP2;P2;SDS_P1;SDS_P2;PMS_P1;PMS_P2;Temp;Humidity;BMP_temperature;BMP_pressure;BME280_temperature;BME280_humidity;BME280_pressure;Samples;Min_cycle;Max_cycle;Signal;HPM_P1;HPM_P2
2022/04/19 00:00:30;;;;;;;6.00;4.88;;;;;;;7.08;100.00;100632.44;6262894;28;20049;-92
2022/04/19 00:03:32;;;;;;;7.72;4.63;;;;;;;7.02;100.00;100630.22;6269178;28;20064;-92
2022/04/19 00:06:36;;;;;;;7.18;5.07;;;;;;;6.99;100.00;100627.03;6279322;28;20044;-92
2022/04/19 00:09:37;;;;;;;7.78;5.43;;;;;;;6.96;100.00;100633.19;6274609;28;20169;-92
2022/04/19 00:12:39;;;;;;;6.35;4.68;;;;;;;6.95;100.00;100625.56;6260344;28;20051;-91
2022/04/19 00:15:42;;;;;;;8.90;5.20;;;;;;;6.92;100.00;100629.16;6269008;28;20037;-92
2022/04/19 00:18:44;;;;;;;6.80;4.68;;;;;;;6.85;100.00;100618.41;6271595;28;20055;-92
2022/04/19 00:21:45;;;;;;;7.15;4.55;;;;;;;6.80;100.00;100610.16;6278581;28;20370;-91
2022/04/19 00:24:47;;;;;;;7.30;5.30;;;;;;;6.76;100.00;100611.28;6273197;28;20040;-93
2022/04/19 00:27:51;;;;;;;6.80;4.28;;;;;;;6.69;100.00;100615.97;6272880;28;20055;-92
2022/04/19 00:30:52;;;;;;;6.80;4.63;;;;;;;6.66;100.00;100613.59;6275223;28;20125;-92
2022/04/19 00:33:54;;;;;;;6.78;4.30;;;;;;;6.63;100.00;100610.34;6257972;28;20518;-92
2022/04/19 00:36:56;;;;;;;4.40;3.80;;;;;;;6.59;100.00;100607.16;6268048;28;20094;-92
2022/04/19 00:39:58;;;;;;;8.55;4.50;;;;;;;6.53;100.00;100611.84;6268295;28;20098;-92
2022/04/19 00:43:00;;;;;;;6.97;4.43;;;;;;;6.46;100.00;100606.25;6266629;28;20065;-92
2022/04/19 00:46:02;;;;;;;6.68;3.95;;;;;;;6.40;100.00;100604.88;6257912;28;20043;-91
2022/04/19 00:49:04;;;;;;;6.50;4.18;;;;;;;6.32;100.00;100601.94;6266438;28;20060;-92
2022/04/19 00:52:08;;;;;;;7.20;4.28;;;;;;;6.24;100.00;100607.53;6282126;28;20139;-91
2022/04/19 00:55:11;;;;;;;6.63;4.65;;;;;;;6.11;100.00;100609.19;6262417;28;20052;-92
2022/04/19 00:58:16;;;;;;;7.07;4.47;;;;;;;5.96;100.00;100615.19;6278567;28;20583;-91
2022/04/19 01:01:21;;;;;;;7.30;4.60;;;;;;;5.87;100.00;100613.16;6276065;28;20056;-91
2022/04/19 01:04:24;;;;;;;8.68;4.25;;;;;;;5.76;100.00;100613.75;6268501;28;20052;-91
2022/04/19 01:07:25;;;;;;;6.25;4.20;;;;;;;5.66;100.00;100618.59;6263261;28;20555;-92
2022/04/19 01:10:30;;;;;;;5.15;3.80;;;;;;;5.62;100.00;100612.00;6277674;28;20033;-92
2022/04/19 01:13:33;;;;;;;6.32;4.10;;;;;;;5.55;100.00;100610.69;6267013;28;20055;-91
2022/04/19 01:16:35;;;;;;;6.03;3.85;;;;;;;5.54;100.00;100614.16;6275408;28;20615;-92
2022/04/19 01:19:38;;;;;;;6.75;4.82;;;;;;;5.49;100.00;100609.31;6251174;28;20102;-92
2022/04/19 01:22:49;;;;;;;5.57;4.47;;;;;;;5.46;100.00;100612.03;6263936;28;20074;-92
2022/04/19 01:25:54;;;;;;;6.50;4.68;;;;;;;5.47;100.00;100611.13;6284269;28;20036;-92
2022/04/19 01:28:57;;;;;;;7.80;4.90;;;;;;;5.50;100.00;100610.94;6276011;28;20033;-91
2022/04/19 01:32:02;;;;;;;6.50;4.43;;;;;;;5.53;100.00;100605.63;6268587;28;20045;-92
2022/04/19 01:35:09;;;;;;;7.65;4.70;;;;;;;5.57;100.00;100616.56;6264466;28;20359;-91
2022/04/19 01:38:14;;;;;;;7.05;5.57;;;;;;;5.58;100.00;100613.06;6259191;28;20056;-91
2022/04/19 01:41:17;;;;;;;8.02;4.82;;;;;;;5.60;100.00;100611.25;6240543;28;20148;-91
2022/04/19 01:44:23;;;;;;;8.05;5.55;;;;;;;5.62;100.00;100606.88;6260035;28;20497;-92
2022/04/19 01:47:25;;;;;;;6.50;4.90;;;;;;;5.66;100.00;100600.63;6261299;28;20060;-91
2022/04/19 01:50:28;;;;;;;7.60;5.03;;;;;;;5.64;100.00;100601.63;6265895;28;20048;-91
2022/04/19 01:53:31;;;;;;;9.43;5.50;;;;;;;5.60;100.00;100598.41;6281753;28;20106;-91
2022/04/19 01:56:33;;;;;;;8.43;5.47;;;;;;;5.53;100.00;100603.06;6259622;28;20268;-91
2022/04/19 01:59:50;;;;;;;8.90;5.60;;;;;;;5.51;100.00;100611.75;6269360;28;20064;-92
2022/04/19 02:03:16;;;;;;;8.02;5.32;;;;;;;5.51;100.00;100604.06;6273400;28;20426;-91
2022/04/19 02:06:20;;;;;;;8.80;5.30;;;;;;;5.50;100.00;100602.41;6259858;28;20143;-92
2022/04/19 02:09:22;;;;;;;8.73;5.30;;;;;;;5.44;100.00;100598.47;6264419;28;20516;-92
2022/04/19 02:12:25;;;;;;;7.50;5.20;;;;;;;5.47;100.00;100597.47;6259544;28;20796;-92
2022/04/19 02:15:39;;;;;;;7.82;5.00;;;;;;;5.47;100.00;100600.03;6272200;28;20052;-92
2022/04/19 02:19:07;;;;;;;7.55;4.93;;;;;;;5.46;100.00;100593.22;6261130;28;20095;-91
2022/04/19 02:22:09;;;;;;;8.95;4.45;;;;;;;5.47;100.00;100600.03;6281422;28;20047;-91
2022/04/19 02:25:14;;;;;;;7.25;4.25;;;;;;;5.46;100.00;100604.31;6274724;28;20884;-92
2022/04/19 02:28:15;;;;;;;7.13;4.72;;;;;;;5.46;100.00;100595.78;6271962;28;20032;-92
2022/04/19 02:31:27;;;;;;;6.50;4.25;;;;;;;5.38;100.00;100586.78;6261093;28;20075;-92
2022/04/19 02:34:31;;;;;;;8.25;4.97;;;;;;;5.29;100.00;100595.03;6259105;28;20595;-91
2022/04/19 02:37:33;;;;;;;8.20;4.88;;;;;;;5.16;100.00;100596.59;6269742;28;20040;-91
2022/04/19 02:40:35;;;;;;;7.95;4.80;;;;;;;5.06;100.00;100590.31;6270046;28;20476;-91
2022/04/19 02:43:39;;;;;;;8.95;5.57;;;;;;;4.93;100.00;100592.72;6254837;28;20084;-91
2022/04/19 02:46:41;;;;;;;7.53;5.32;;;;;;;4.83;100.00;100596.72;6257689;28;20505;-90
2022/04/19 02:49:46;;;;;;;10.48;5.43;;;;;;;4.77;100.00;100589.31;6271814;28;20052;-91
2022/04/19 02:52:48;;;;;;;7.30;5.28;;;;;;;4.72;100.00;100584.44;6266524;28;20093;-90
2022/04/19 02:55:50;;;;;;;8.32;5.50;;;;;;;4.68;100.00;100595.78;6267852;28;20109;-91
2022/04/19 02:58:53;;;;;;;7.80;5.72;;;;;;;4.64;100.00;100586.59;6264367;28;20044;-91
2022/04/19 03:01:58;;;;;;;7.88;4.82;;;;;;;4.56;100.00;100583.63;6269767;28;20132;-91
2022/04/19 03:05:04;;;;;;;7.43;5.18;;;;;;;4.48;100.00;100577.16;6250626;28;20144;-91
2022/04/19 03:08:07;;;;;;;8.63;5.22;;;;;;;4.46;100.00;100581.53;6271052;28;20075;-91
2022/04/19 03:11:10;;;;;;;8.15;5.85;;;;;;;4.51;100.00;100579.56;6263138;28;20045;-91
2022/04/19 03:14:12;;;;;;;8.48;5.40;;;;;;;4.53;100.00;100577.75;6263686;28;20121;-91
2022/04/19 03:17:14;;;;;;;8.25;5.45;;;;;;;4.51;100.00;100574.44;6273970;28;20036;-91
2022/04/19 03:20:16;;;;;;;8.82;5.40;;;;;;;4.54;100.00;100578.56;6272530;28;20532;-91
2022/04/19 03:30:05;;;;;;;8.23;6.35;;;;;;;4.61;100.00;100585.03;6269106;28;20071;-91
2022/04/19 03:33:09;;;;;;;9.27;5.20;;;;;;;4.61;100.00;100584.19;6280672;28;20040;-91
2022/04/19 03:36:11;;;;;;;8.77;5.68;;;;;;;4.65;100.00;100583.97;6266160;28;20429;-92
2022/04/19 03:39:12;;;;;;;7.93;5.10;;;;;;;4.63;100.00;100587.50;6278514;28;20065;-92
2022/04/19 03:42:15;;;;;;;6.63;4.57;;;;;;;4.63;100.00;100590.09;6272360;28;20041;-91
2022/04/19 03:45:16;;;;;;;7.28;5.60;;;;;;;4.60;100.00;100593.63;6254319;28;20049;-91
2022/04/19 03:48:20;;;;;;;8.25;4.82;;;;;;;4.62;100.00;100591.81;6259927;28;20553;-91
2022/04/19 03:51:25;;;;;;;7.55;4.88;;;;;;;4.58;100.00;100592.88;6280010;28;20045;-91
2022/04/19 03:54:27;;;;;;;6.35;4.68;;;;;;;4.56;100.00;100589.56;6274381;28;20037;-91
2022/04/19 03:57:28;;;;;;;7.25;5.47;;;;;;;4.54;100.00;100588.81;6285983;28;20322;-91
2022/04/19 04:00:30;;;;;;;6.63;4.70;;;;;;;4.56;100.00;100596.44;6281568;28;20048;-92
2022/04/19 04:03:32;;;;;;;10.13;4.95;;;;;;;4.55;100.00;100603.31;6269974;28;20488;-92
2022/04/19 04:06:35;;;;;;;7.07;4.93;;;;;;;4.52;100.00;100603.44;6263000;28;20045;-91
2022/04/19 04:09:37;;;;;;;6.40;4.88;;;;;;;4.47;100.00;100602.84;6267532;28;20056;-91
2022/04/19 04:12:41;;;;;;;7.10;5.10;;;;;;;4.42;100.00;100610.81;6262593;28;20033;-91
2022/04/19 04:15:45;;;;;;;9.85;5.30;;;;;;;4.44;100.00;100608.16;6255671;28;20083;-91
2022/04/19 04:18:47;;;;;;;9.77;4.68;;;;;;;4.42;100.00;100612.53;6273682;28;20409;-91
2022/04/19 04:21:49;;;;;;;5.72;4.38;;;;;;;4.33;100.00;100606.16;6286169;28;20048;-91
2022/04/19 04:24:52;;;;;;;7.10;4.32;;;;;;;4.23;100.00;100615.22;6277050;28;20049;-91
2022/04/19 04:27:54;;;;;;;8.82;4.35;;;;;;;4.10;100.00;100615.84;6278835;28;20045;-92
2022/04/19 04:30:59;;;;;;;6.82;4.75;;;;;;;4.06;100.00;100613.50;6262632;28;20628;-91
2022/04/19 04:34:02;;;;;;;6.88;4.82;;;;;;;4.00;100.00;100617.22;6273069;28;20044;-90
2022/04/19 04:37:05;;;;;;;8.07;4.95;;;;;;;4.03;100.00;100617.06;6261899;28;20131;-91
2022/04/19 04:40:12;;;;;;;7.85;5.25;;;;;;;4.00;100.00;100612.09;6268432;28;20076;-91
2022/04/19 04:43:23;;;;;;;5.70;4.28;;;;;;;4.02;100.00;100612.81;6275871;28;20048;-91
2022/04/19 04:49:45;;;;;;;6.00;4.13;;;;;;;4.24;100.00;100616.88;6278562;28;20048;-92
2022/04/19 04:52:53;;;;;;;7.95;4.57;;;;;;;4.30;100.00;100619.94;6267235;28;20048;-91
2022/04/19 04:55:55;;;;;;;6.05;4.18;;;;;;;4.33;100.00;100618.97;6271768;28;20036;-92
2022/04/19 04:59:02;;;;;;;6.13;4.20;;;;;;;4.30;100.00;100617.41;6259607;28;20045;-92
2022/04/19 05:02:06;;;;;;;7.75;5.03;;;;;;;4.28;100.00;100631.19;6267295;28;20045;-91
2022/04/19 05:05:08;;;;;;;7.93;4.95;;;;;;;4.29;100.00;100630.28;6271439;28;20331;-91
2022/04/19 05:08:12;;;;;;;10.65;4.82;;;;;;;4.23;100.00;100628.84;6269553;28;20040;-91
2022/04/19 05:11:15;;;;;;;7.25;4.43;;;;;;;4.27;100.00;100626.94;6260992;28;20045;-90
2022/04/19 05:14:18;;;;;;;8.07;4.97;;;;;;;4.30;100.00;100630.22;6281577;28;20079;-91
2022/04/19 05:17:19;;;;;;;6.53;4.95;;;;;;;4.30;100.00;100626.81;6260796;28;20040;-91
2022/04/19 05:20:21;;;;;;;5.72;4.40;;;;;;;4.32;100.00;100640.34;6267889;28;20037;-91
2022/04/19 05:23:23;;;;;;;9.02;4.57;;;;;;;4.36;100.00;100629.06;6278650;28;20033;-92
2022/04/19 05:26:28;;;;;;;7.63;4.65;;;;;;;4.43;100.00;100632.97;6270433;28;20067;-91
2022/04/19 05:29:33;;;;;;;7.57;5.00;;;;;;;4.51;100.00;100635.13;6268599;28;20090;-91
2022/04/19 05:32:34;;;;;;;9.52;5.10;;;;;;;4.58;100.00;100631.34;6268473;28;20074;-91
2022/04/19 05:35:41;;;;;;;9.27;4.50;;;;;;;4.67;100.00;100640.25;6272132;28;20572;-91
2022/04/19 05:38:44;;;;;;;7.07;4.90;;;;;;;4.72;100.00;100640.84;6257123;28;20045;-91
2022/04/19 05:41:45;;;;;;;6.97;5.03;;;;;;;4.74;100.00;100632.19;6259464;28;20599;-91
2022/04/19 05:44:47;;;;;;;6.43;4.72;;;;;;;4.83;100.00;100633.44;6270940;28;20076;-91
2022/04/19 05:47:50;;;;;;;7.63;4.40;;;;;;;4.90;100.00;100639.06;6262627;28;20082;-91
2022/04/19 05:50:52;;;;;;;7.10;4.32;;;;;;;4.97;100.00;100637.84;6269240;28;20084;-91
2022/04/19 05:53:54;;;;;;;7.43;4.03;;;;;;;5.14;100.00;100642.88;6262248;28;20053;-92
2022/04/19 05:56:56;;;;;;;6.93;4.35;;;;;;;5.18;100.00;100635.84;6274049;28;20057;-91
2022/04/19 05:59:58;;;;;;;8.05;4.63;;;;;;;5.24;100.00;100639.78;6268965;28;20048;-92
2022/04/19 06:06:22;;;;;;;4.75;3.53;;;;;;;5.33;100.00;100637.53;6266396;28;20485;-91
2022/04/19 06:09:28;;;;;;;8.57;4.35;;;;;;;5.38;100.00;100637.28;6267286;28;20045;-92
2022/04/19 06:12:30;;;;;;;7.35;4.50;;;;;;;5.44;100.00;100644.69;6271744;28;20045;-91
2022/04/19 06:15:37;;;;;;;7.18;4.00;;;;;;;5.46;100.00;100640.25;6261386;28;20125;-92
2022/04/19 06:18:41;;;;;;;7.10;3.80;;;;;;;5.53;100.00;100646.72;6277860;28;20049;-91
2022/04/19 06:21:49;;;;;;;5.72;3.67;;;;;;;5.64;100.00;100633.28;6258156;28;20528;-91
2022/04/19 06:24:51;;;;;;;4.85;3.03;;;;;;;5.70;100.00;100643.19;6269787;28;20057;-90
2022/04/19 06:27:56;;;;;;;4.22;3.08;;;;;;;5.73;100.00;100643.00;6279920;28;20036;-92
2022/04/19 06:31:00;;;;;;;5.70;3.47;;;;;;;5.83;100.00;100645.88;6283012;28;20132;-93
2022/04/19 06:34:04;;;;;;;3.97;3.33;;;;;;;5.86;100.00;100640.56;6267077;28;20041;-93
2022/04/19 06:37:29;;;;;;;4.38;3.25;;;;;;;5.99;100.00;100633.84;6268587;28;20048;-92
2022/04/19 06:40:45;;;;;;;8.15;3.88;;;;;;;6.01;100.00;100633.75;6261812;28;20053;-93
2022/04/19 06:43:46;;;;;;;5.18;3.67;;;;;;;6.03;100.00;100644.78;6256923;28;20044;-93
2022/04/19 06:47:01;;;;;;;4.80;3.40;;;;;;;6.06;100.00;100634.31;6271046;28;20829;-93
2022/04/19 06:50:05;;;;;;;7.68;3.42;;;;;;;6.12;100.00;100633.97;6256360;28;20051;-93
2022/04/19 06:53:07;;;;;;;10.52;4.22;;;;;;;6.19;100.00;100637.00;6259271;28;20052;-93
2022/04/19 06:56:35;;;;;;;7.65;3.47;;;;;;;6.28;100.00;100638.19;6267221;28;20604;-93
2022/04/19 06:59:37;;;;;;;5.53;3.15;;;;;;;6.30;100.00;100638.94;6261071;28;20454;-93
2022/04/19 07:02:39;;;;;;;3.20;2.90;;;;;;;6.37;100.00;100637.66;6274611;28;20227;-93
2022/04/19 07:06:00;;;;;;;6.07;3.25;;;;;;;6.42;100.00;100646.75;6261370;28;20045;-93
2022/04/19 07:09:03;;;;;;;5.05;3.65;;;;;;;6.47;100.00;100638.75;6279595;28;20040;-93
2022/04/19 07:12:06;;;;;;;4.82;3.47;;;;;;;6.61;98.44;100646.47;6263812;28;20048;-93
2022/04/19 07:15:13;;;;;;;3.67;3.22;;;;;;;6.66;93.94;100641.88;6266388;28;20053;-93
2022/04/19 07:18:23;;;;;;;6.35;3.38;;;;;;;6.68;95.73;100652.91;6279399;28;20536;-93
2022/04/19 07:28:35;;;;;;;4.32;2.72;;;;;;;7.13;81.01;100663.03;6254707;28;20056;-93
2022/04/19 07:31:43;;;;;;;6.88;3.38;;;;;;;7.09;82.43;100659.81;6263806;28;20072;-93
2022/04/19 07:35:02;;;;;;;4.90;2.88;;;;;;;7.16;81.27;100667.16;6263637;28;20533;-93
2022/04/19 07:38:05;;;;;;;3.80;2.35;;;;;;;7.22;80.56;100667.59;6244441;28;20049;-92
2022/04/19 07:41:34;;;;;;;3.22;2.50;;;;;;;7.39;76.29;100673.44;6276761;28;20461;-93
2022/04/19 07:44:36;;;;;;;3.67;2.50;;;;;;;7.36;76.71;100665.91;6285234;28;20051;-93
2022/04/19 07:47:38;;;;;;;4.60;2.85;;;;;;;7.45;76.93;100671.31;6262399;28;20150;-94
2022/04/19 07:50:40;;;;;;;5.15;2.78;;;;;;;7.54;74.33;100667.31;6261171;28;20051;-93
2022/04/19 07:53:42;;;;;;;4.85;2.42;;;;;;;7.54;75.23;100673.28;6262265;28;20048;-93
2022/04/19 07:56:50;;;;;;;3.15;2.33;;;;;;;7.63;73.73;100666.72;6263387;28;20429;-93
2022/04/19 07:59:53;;;;;;;4.07;2.40;;;;;;;7.77;73.13;100668.41;6265648;28;20044;-93
2022/04/19 08:02:57;;;;;;;4.95;2.67;;;;;;;7.96;67.55;100668.03;6258943;28;20044;-93
2022/04/19 08:06:00;;;;;;;7.20;2.40;;;;;;;7.94;67.96;100659.56;6284783;28;20080;-94
2022/04/19 08:09:02;;;;;;;2.00;1.80;;;;;;;8.03;68.12;100655.56;6262135;28;20185;-93
2022/04/19 08:12:05;;;;;;;3.15;1.73;;;;;;;8.07;63.83;100646.69;6266563;28;20091;-93
2022/04/19 08:15:08;;;;;;;2.63;1.70;;;;;;;8.15;65.92;100644.44;6277742;28;20045;-94
2022/04/19 08:18:13;;;;;;;6.57;2.10;;;;;;;8.30;66.70;100645.16;6272959;28;20037;-93
2022/04/19 08:21:18;;;;;;;2.65;1.95;;;;;;;8.36;66.38;100644.75;6263603;28;20039;-93
2022/04/19 08:24:23;;;;;;;4.45;2.00;;;;;;;8.43;63.06;100635.69;6267770;28;20522;-94
2022/04/19 08:27:25;;;;;;;2.53;1.90;;;;;;;8.61;61.23;100646.50;6276154;28;20054;-93
2022/04/19 08:30:27;;;;;;;2.75;1.80;;;;;;;8.63;61.70;100644.66;6276490;28;20056;-93
2022/04/19 08:33:29;;;;;;;4.07;2.03;;;;;;;8.72;61.40;100651.75;6265373;28;20570;-93
2022/04/19 08:36:31;;;;;;;2.78;1.85;;;;;;;8.70;61.33;100650.22;6272557;28;20363;-94
2022/04/19 08:39:33;;;;;;;2.95;1.95;;;;;;;8.74;61.65;100652.47;6260907;28;20033;-93
2022/04/19 08:42:37;;;;;;;3.65;2.17;;;;;;;8.79;60.80;100649.56;6272029;28;20516;-93
2022/04/19 08:45:38;;;;;;;3.08;1.88;;;;;;;8.79;59.03;100645.25;6279549;28;20045;-93
2022/04/19 08:48:41;;;;;;;4.55;1.88;;;;;;;8.87;59.62;100646.44;6268158;28;20037;-93
2022/04/19 08:51:44;;;;;;;2.13;1.63;;;;;;;8.92;59.56;100645.22;6275190;28;20048;-93
2022/04/19 08:58:08;;;;;;;2.85;1.60;;;;;;;9.37;57.62;100650.63;6265774;28;20943;-93
2022/04/19 09:01:10;;;;;;;4.13;1.70;;;;;;;9.60;55.53;100651.53;6258461;28;20044;-93
2022/04/19 09:04:12;;;;;;;5.00;1.80;;;;;;;9.85;53.47;100647.16;6269921;28;20051;-93
2022/04/19 09:07:14;;;;;;;3.40;1.33;;;;;;;10.07;53.47;100647.19;6260412;28;20546;-93
2022/04/19 09:10:26;;;;;;;2.83;1.55;;;;;;;10.28;48.32;100649.13;6274790;28;20044;-93
2022/04/19 09:13:28;;;;;;;2.78;1.52;;;;;;;10.32;47.17;100651.38;6283792;28;20048;-94
2022/04/19 09:16:31;;;;;;;3.97;1.50;;;;;;;10.39;46.20;100648.34;6283275;28;20045;-93
2022/04/19 09:19:33;;;;;;;3.20;1.40;;;;;;;10.48;45.90;100651.06;6301061;28;20040;-93
2022/04/19 09:22:36;;;;;;;3.88;1.30;;;;;;;10.50;44.43;100654.31;6251930;28;20510;-93
2022/04/19 09:25:38;;;;;;;6.85;1.40;;;;;;;10.57;46.82;100654.69;6268757;28;20067;-92
2022/04/19 09:28:39;;;;;;;1.92;1.27;;;;;;;10.70;47.08;100651.97;6260514;28;20048;-93
2022/04/19 09:31:41;;;;;;;1.77;1.00;;;;;;;10.82;43.68;100653.59;6266789;28;20410;-92
2022/04/19 09:34:47;;;;;;;4.03;1.20;;;;;;;10.93;44.06;100655.34;6275855;28;20045;-93
2022/04/19 09:37:49;;;;;;;1.85;1.35;;;;;;;11.08;45.07;100656.75;6273083;28;20550;-90
2022/04/19 09:40:50;;;;;;;5.10;1.73;;;;;;;11.18;44.98;100659.44;6258239;28;20612;-93
2022/04/19 09:44:13;;;;;;;3.70;1.58;;;;;;;11.42;46.94;100664.41;6264331;28;20515;-92
2022/04/19 09:47:15;;;;;;;1.75;1.30;;;;;;;11.64;45.59;100658.31;6262765;28;20037;-93
2022/04/19 09:50:17;;;;;;;2.55;1.48;;;;;;;11.76;45.74;100659.09;6259194;28;20391;-93
2022/04/19 09:53:23;;;;;;;3.70;1.25;;;;;;;11.87;46.19;100658.25;6256032;28;20044;-93
2022/04/19 09:56:34;;;;;;;2.45;1.40;;;;;;;11.86;46.03;100657.41;6266257;28;20209;-92
2022/04/19 09:59:52;;;;;;;5.72;1.60;;;;;;;11.95;46.80;100651.50;6269547;28;20527;-93
2022/04/19 10:09:39;;;;;;;1.85;1.27;;;;;;;12.45;45.12;100645.59;6261237;28;20052;-93
2022/04/19 10:12:41;;;;;;;3.38;1.10;;;;;;;12.51;46.04;100645.06;6267870;28;20056;-92
2022/04/19 10:15:45;;;;;;;2.03;1.00;;;;;;;12.60;47.06;100649.47;6268544;28;20048;-93
2022/04/19 10:18:47;;;;;;;1.67;0.90;;;;;;;12.57;46.01;100647.16;6274870;28;20097;-94
2022/04/19 10:21:49;;;;;;;5.05;1.70;;;;;;;12.55;45.45;100648.25;6271251;28;20045;-94
2022/04/19 10:24:51;;;;;;;1.08;0.95;;;;;;;12.55;44.10;100650.84;6273973;28;20397;-94
2022/04/19 10:28:08;;;;;;;3.40;0.90;;;;;;;12.53;43.85;100656.16;6269085;28;20080;-94
2022/04/19 10:31:10;;;;;;;3.00;0.93;;;;;;;12.68;44.83;100656.63;6271651;28;20051;-93
2022/04/19 10:34:24;;;;;;;1.92;1.10;;;;;;;12.89;42.56;100653.94;6250601;28;20040;-94
2022/04/19 10:37:26;;;;;;;2.10;0.90;;;;;;;13.09;45.50;100657.38;6265870;28;20053;-92
2022/04/19 10:40:49;;;;;;;1.27;0.85;;;;;;;13.37;42.40;100647.22;6267260;28;20866;-95
2022/04/19 10:44:26;;;;;;;1.20;1.00;;;;;;;13.58;41.66;100653.91;6274742;28;20152;-93
2022/04/19 10:47:28;;;;;;;4.93;1.00;;;;;;;13.57;40.04;100648.84;6277922;28;20503;-94
2022/04/19 10:50:34;;;;;;;2.92;1.23;;;;;;;13.70;42.08;100653.75;6267748;28;20044;-95
2022/04/19 10:53:36;;;;;;;2.15;1.20;;;;;;;13.84;41.70;100650.75;6282559;28;20044;-94
2022/04/19 11:00:59;;;;;;;2.65;1.40;;;;;;;13.93;41.39;100647.28;6268812;28;20033;-95
2022/04/19 11:04:05;;;;;;;2.45;1.50;;;;;;;14.03;37.78;100642.06;6263108;28;20142;-95
2022/04/19 11:07:52;;;;;;;3.47;1.33;;;;;;;14.07;39.95;100634.81;6270115;28;20049;-94
2022/04/19 11:11:03;;;;;;;2.50;1.30;;;;;;;14.21;41.04;100636.97;6273215;28;20060;-95
2022/04/19 11:14:36;;;;;;;2.47;1.70;;;;;;;14.23;39.18;100635.00;6276137;28;21174;-94
2022/04/19 11:17:42;;;;;;;4.03;1.80;;;;;;;14.31;38.44;100627.34;6264147;28;20068;-95
2022/04/19 11:20:48;;;;;;;3.13;1.38;;;;;;;14.33;39.69;100628.00;6267659;28;20041;-95
2022/04/19 11:23:50;;;;;;;2.38;1.60;;;;;;;14.35;39.62;100623.47;6274134;28;20045;-94
2022/04/19 11:26:52;;;;;;;1.92;1.50;;;;;;;14.44;36.16;100627.00;6265262;28;20055;-94
2022/04/19 11:29:54;;;;;;;1.98;1.42;;;;;;;14.41;36.36;100622.09;6275511;28;20047;-95
2022/04/19 11:32:58;;;;;;;1.25;1.08;;;;;;;14.42;39.18;100613.31;6280869;28;20048;-96
2022/04/19 11:36:13;;;;;;;2.88;1.52;;;;;;;14.53;38.56;100612.28;6272974;28;20405;-96
2022/04/19 11:49:34;;;;;;;1.40;1.30;;;;;;;14.85;36.28;100604.84;6269955;28;20033;-93
2022/04/19 11:52:36;;;;;;;1.95;1.25;;;;;;;14.86;36.43;100605.69;6263171;28;20388;-92
2022/04/19 11:55:49;;;;;;;2.45;1.10;;;;;;;15.06;35.42;100606.38;6267301;28;20053;-91
2022/04/19 11:58:52;;;;;;;2.47;1.38;;;;;;;15.16;35.25;100599.31;6272702;28;20111;-96
2022/04/19 12:01:54;;;;;;;2.35;1.30;;;;;;;15.26;34.62;100605.25;6277827;28;20115;-94
2022/04/19 12:04:59;;;;;;;3.38;1.10;;;;;;;15.40;37.45;100603.94;6262014;28;20048;-96
2022/04/19 12:08:02;;;;;;;2.63;1.20;;;;;;;15.56;37.37;100592.78;6272689;28;20044;-95
2022/04/19 12:11:29;;;;;;;5.57;1.40;;;;;;;15.76;34.50;100600.47;6270849;28;20033;-96
2022/04/19 12:14:32;;;;;;;2.40;1.40;;;;;;;15.83;35.08;100588.44;6261858;28;20075;-95
2022/04/19 12:17:43;;;;;;;2.88;1.45;;;;;;;15.89;34.63;100582.59;6265500;28;20044;-94
2022/04/19 12:20:45;;;;;;;1.30;1.20;;;;;;;16.03;34.67;100591.66;6280804;28;20774;-92
2022/04/19 12:23:51;;;;;;;2.53;1.27;;;;;;;16.12;36.66;100578.47;6285209;28;20044;-95
2022/04/19 12:27:07;;;;;;;2.92;1.50;;;;;;;16.24;36.17;100570.34;6268832;28;20478;-96
2022/04/19 12:30:15;;;;;;;1.80;0.93;;;;;;;16.24;32.65;100570.34;6276566;28;20041;-95
2022/04/19 12:33:17;;;;;;;2.90;1.40;;;;;;;16.35;33.35;100564.88;6273923;28;20037;-96
2022/04/19 12:36:22;;;;;;;1.50;1.30;;;;;;;16.48;32.76;100564.41;6255758;28;20269;-95
2022/04/19 12:39:24;;;;;;;3.22;1.50;;;;;;;16.57;32.52;100566.91;6271552;28;20058;-94
2022/04/19 12:42:27;;;;;;;2.25;1.23;;;;;;;16.67;34.54;100564.16;6244027;28;21045;-96
2022/04/19 12:45:32;;;;;;;2.13;1.13;;;;;;;16.86;34.13;100557.81;6283639;28;20040;-96
2022/04/19 12:48:35;;;;;;;2.17;1.10;;;;;;;17.06;35.47;100563.56;6264217;28;20057;-95
2022/04/19 12:51:39;;;;;;;1.95;1.20;;;;;;;17.13;36.40;100566.34;6276739;28;20053;-95
2022/04/19 12:54:47;;;;;;;2.38;1.30;;;;;;;17.20;33.72;100560.31;6269738;28;20120;-95
2022/04/19 12:58:05;;;;;;;4.18;1.10;;;;;;;17.29;32.16;100561.13;6277618;28;20043;-93
2022/04/19 13:01:07;;;;;;;4.47;1.10;;;;;;;17.35;32.37;100567.50;6266514;28;20569;-95
2022/04/19 13:04:09;;;;;;;0.85;0.70;;;;;;;17.34;32.12;100556.22;6262727;28;20716;-95
2022/04/19 13:13:52;;;;;;;0.98;0.90;;;;;;;17.70;30.16;100547.16;6274788;28;20036;-96
2022/04/19 13:16:55;;;;;;;1.73;0.80;;;;;;;17.75;33.23;100537.81;6264926;28;20036;-96
2022/04/19 13:19:57;;;;;;;4.82;1.10;;;;;;;17.96;31.87;100542.56;6278662;28;20051;-96
2022/04/19 13:22:59;;;;;;;4.93;2.13;;;;;;;18.04;33.69;100546.94;6279802;28;20044;-96
2022/04/19 13:26:04;;;;;;;1.88;1.20;;;;;;;18.04;30.34;100547.75;6278494;28;20119;-96
2022/04/19 13:29:08;;;;;;;2.78;1.13;;;;;;;18.03;31.41;100535.63;6273896;28;20048;-96
2022/04/19 13:32:12;;;;;;;2.83;1.13;;;;;;;18.15;32.01;100541.31;6268863;28;20085;-96
2022/04/19 13:35:14;;;;;;;1.35;1.00;;;;;;;18.32;30.25;100536.03;6283100;28;20508;-95
2022/04/19 13:38:25;;;;;;;2.13;1.55;;;;;;;18.28;30.31;100539.00;6269168;28;20048;-96
2022/04/19 13:41:27;;;;;;;2.03;1.13;;;;;;;18.28;34.40;100525.88;6275046;28;20052;-95
2022/04/19 13:44:31;;;;;;;2.10;1.15;;;;;;;18.38;32.88;100527.44;6271728;28;20541;-95
2022/04/19 13:47:33;;;;;;;1.63;1.10;;;;;;;18.57;33.14;100531.47;6275894;28;20506;-96
2022/04/19 13:50:35;;;;;;;1.77;1.10;;;;;;;18.49;34.22;100524.47;6271588;28;20306;-94
2022/04/19 13:53:37;;;;;;;3.22;0.90;;;;;;;18.69;32.64;100527.44;6273973;28;20053;-95
2022/04/19 13:56:40;;;;;;;1.83;1.05;;;;;;;18.88;34.94;100527.03;6279776;28;20045;-95
2022/04/19 13:59:47;;;;;;;0.98;0.90;;;;;;;18.99;31.97;100536.28;6271028;28;20145;-96
2022/04/19 14:02:50;;;;;;;1.13;1.02;;;;;;;18.86;31.22;100523.75;6272281;28;20500;-94
2022/04/19 14:05:52;;;;;;;1.33;0.93;;;;;;;18.94;31.22;100522.88;6266149;28;20067;-94
2022/04/19 14:08:55;;;;;;;1.75;1.27;;;;;;;18.93;31.06;100532.56;6268115;28;20572;-95
2022/04/19 14:11:59;;;;;;;3.03;1.20;;;;;;;18.97;29.71;100527.75;6268508;28;20044;-96
2022/04/19 14:15:02;;;;;;;2.95;1.30;;;;;;;19.00;34.39;100537.88;6261811;28;20036;-96
2022/04/19 14:18:04;;;;;;;1.45;1.08;;;;;;;19.13;31.13;100526.81;6261579;28;20454;-95
2022/04/19 14:21:07;;;;;;;1.73;0.80;;;;;;;19.16;31.33;100534.34;6265674;28;20503;-95
2022/04/19 14:24:09;;;;;;;1.75;1.05;;;;;;;19.33;31.96;100527.16;6262249;28;20243;-96
2022/04/19 14:27:11;;;;;;;2.35;1.20;;;;;;;19.37;30.63;100536.28;6276171;28;20575;-96
2022/04/19 14:33:41;;;;;;;1.92;1.20;;;;;;;19.33;29.83;100532.41;6267973;28;20134;-96
2022/04/19 14:36:43;;;;;;;2.03;1.20;;;;;;;19.24;33.73;100522.94;6266251;28;20048;-96
2022/04/19 14:39:46;;;;;;;1.25;0.75;;;;;;;19.31;32.40;100524.69;6270294;28;20536;-95
2022/04/19 14:42:48;;;;;;;1.95;1.25;;;;;;;19.46;30.44;100527.34;6279513;28;20052;-95
2022/04/19 14:45:50;;;;;;;3.83;1.30;;;;;;;19.45;31.46;100523.09;6260768;28;20041;-96
2022/04/19 14:48:52;;;;;;;2.20;1.02;;;;;;;19.52;31.46;100529.22;6267077;28;20056;-96
2022/04/19 14:55:15;;;;;;;3.55;1.38;;;;;;;19.66;32.16;100524.19;6270174;28;20670;-96
2022/04/19 14:58:17;;;;;;;1.15;1.00;;;;;;;19.71;33.91;100521.88;6271851;28;20036;-96
2022/04/19 15:01:19;;;;;;;1.35;1.25;;;;;;;19.81;31.90;100521.59;6270382;28;20952;-96
2022/04/19 15:04:21;;;;;;;2.05;1.10;;;;;;;19.75;30.61;100518.69;6274457;28;20036;-96
2022/04/19 15:07:25;;;;;;;1.30;0.90;;;;;;;19.78;28.51;100528.84;6286967;28;20348;-96
2022/04/19 15:10:28;;;;;;;6.43;1.10;;;;;;;19.64;29.11;100518.28;6283705;28;20175;-96
2022/04/19 15:13:47;;;;;;;1.77;1.10;;;;;;;19.63;31.55;100514.06;6275228;28;20041;-96
2022/04/19 15:16:50;;;;;;;1.40;1.08;;;;;;;19.66;31.26;100518.94;6279671;28;20403;-96
2022/04/19 15:19:52;;;;;;;1.27;1.17;;;;;;;19.71;30.12;100519.22;6275121;28;20048;-96